createdAt,value
2022-10-05T00:00:22.509Z,45.54
2022-10-05T00:02:52.595Z,45.04
2022-10-05T00:05:34.557Z,46.27
2022-10-05T00:08:24.739Z,46.08
2022-10-05T00:10:53.026Z,44.61
2022-10-05T00:13:29.807Z,46.00
2022-10-05T00:16:06.495Z,46.21
2022-10-05T00:18:33.909Z,45.01
2022-10-05T00:21:02.088Z,45.32
2022-10-05T00:23:31.967Z,46.10
2022-10-05T00:26:26.838Z,46.87
2022-10-05T00:28:55.435Z,45.89
2022-10-05T00:31:33.243Z,47.26
2022-10-05T00:34:00.869Z,45.78
2022-10-05T00:36:28.394Z,45.66
2022-10-05T00:38:55.900Z,45.60
2022-10-05T00:41:47.556Z,47.14
2022-10-05T00:44:20.774Z,45.39
2022-10-05T00:47:09.930Z,46.36
2022-10-05T00:49:55.613Z,45.62
2022-10-05T00:52:47.262Z,46.70
2022-10-05T00:55:28.423Z,46.59
2022-10-05T00:58:48.316Z,46.34
2022-10-05T01:01:52.243Z,46.02
2022-10-05T01:04:54.278Z,45.84
2022-10-05T01:08:00.322Z,46.11
2022-10-05T01:10:56.400Z,45.84
2022-10-05T01:13:57.472Z,45.72
2022-10-05T01:16:30.400Z,44.15
2022-10-05T01:19:25.635Z,45.53
2022-10-05T01:22:10.312Z,45.59
2022-10-05T01:24:52.579Z,45.83
2022-10-05T01:27:43.630Z,45.65
2022-10-05T01:30:17.701Z,45.41
2022-10-05T01:33:12.478Z,45.67
2022-10-05T01:35:55.148Z,45.76
2022-10-05T01:38:22.510Z,43.77
2022-10-05T01:41:12.487Z,45.13
2022-10-05T01:43:55.545Z,45.36
2022-10-05T01:46:39.286Z,45.10
2022-10-05T01:49:23.951Z,44.78
2022-10-05T01:52:10.105Z,44.48
2022-10-05T01:55:02.001Z,44.51
2022-10-05T01:57:47.949Z,44.60
2022-10-05T02:00:19.004Z,44.03
2022-10-05T02:02:52.813Z,43.80
2022-10-05T02:05:24.643Z,44.31
2022-10-05T02:08:00.835Z,44.11
2022-10-05T02:10:46.837Z,43.05
2022-10-05T02:13:21.730Z,43.63
2022-10-05T02:15:54.951Z,43.29
2022-10-05T02:18:29.232Z,43.91
2022-10-05T02:21:01.978Z,43.83
2022-10-05T02:23:36.138Z,43.88
2022-10-05T02:26:05.291Z,43.80
2022-10-05T02:28:45.326Z,44.55
2022-10-05T02:31:19.768Z,44.00
2022-10-05T02:33:48.975Z,43.49
2022-10-05T02:36:32.559Z,44.38
2022-10-05T02:39:21.225Z,45.36
2022-10-05T02:42:12.064Z,44.32
2022-10-05T02:45:07.623Z,44.12
2022-10-05T02:47:42.938Z,43.45
2022-10-05T02:50:36.535Z,43.53
2022-10-05T02:53:36.249Z,42.72
2022-10-05T02:56:14.921Z,43.63
2022-10-05T02:58:51.851Z,43.82
2022-10-05T03:01:31.996Z,44.46
2022-10-05T03:04:11.180Z,42.51
2022-10-05T03:07:16.111Z,44.46
2022-10-05T03:10:00.920Z,45.27
2022-10-05T03:12:45.674Z,44.89
2022-10-05T03:15:45.451Z,43.96
2022-10-05T03:18:31.493Z,44.99
2022-10-05T03:21:23.830Z,45.45
2022-10-05T03:23:57.323Z,44.29
2022-10-05T03:26:34.301Z,44.22
2022-10-05T03:29:25.881Z,44.25
2022-10-05T03:32:10.398Z,43.90
2022-10-05T03:35:08.378Z,44.73
2022-10-05T03:38:01.580Z,44.91
2022-10-05T03:40:47.164Z,44.46
2022-10-05T03:43:30.566Z,44.38
2022-10-05T03:46:23.393Z,44.37
2022-10-05T03:49:27.917Z,44.06
2022-10-05T03:52:15.670Z,44.10
2022-10-05T03:55:00.164Z,43.81
2022-10-05T03:57:33.821Z,42.81
2022-10-05T04:00:06.841Z,42.78
2022-10-05T04:03:11.458Z,42.77
2022-10-05T04:05:51.092Z,42.17
2022-10-05T04:08:33.092Z,42.40
2022-10-05T04:11:06.298Z,42.05
2022-10-05T04:13:52.814Z,41.62
2022-10-05T04:16:30.008Z,41.65
2022-10-05T04:19:22.363Z,41.68
2022-10-05T04:22:00.300Z,41.48
2022-10-05T04:24:28.338Z,40.98
2022-10-05T04:27:06.231Z,41.44
2022-10-05T04:29:53.858Z,41.55
2022-10-05T04:32:38.032Z,41.07
2022-10-05T04:35:22.282Z,40.72
2022-10-05T04:38:11.110Z,40.40
2022-10-05T04:40:50.650Z,39.48
2022-10-05T04:43:46.743Z,39.42
2022-10-05T04:46:33.089Z,39.26
2022-10-05T04:49:39.774Z,38.38
2022-10-05T04:52:34.660Z,37.49
2022-10-05T04:55:17.228Z,37.20
2022-10-05T04:57:57.974Z,36.38
2022-10-05T05:00:44.128Z,35.54
2022-10-05T05:03:47.160Z,35.99
2022-10-05T05:06:57.334Z,35.33
2022-10-05T05:10:02.312Z,33.88
2022-10-05T05:13:09.581Z,32.45
2022-10-05T05:15:54.297Z,31.18
2022-10-05T05:18:33.898Z,29.05
2022-10-05T05:21:17.126Z,28.73
2022-10-05T05:23:59.377Z,27.40
2022-10-05T05:26:38.871Z,26.88
2022-10-05T05:29:44.842Z,28.64
2022-10-05T05:32:24.280Z,26.75
2022-10-05T05:35:00.778Z,28.12
2022-10-05T05:37:53.766Z,28.74
2022-10-05T05:40:27.120Z,27.26
2022-10-05T05:43:00.741Z,30.45
2022-10-05T05:45:42.381Z,27.73
2022-10-05T05:48:37.249Z,28.38
2022-10-05T05:51:05.188Z,25.57
2022-10-05T05:53:48.445Z,25.50
2022-10-05T05:56:21.626Z,25.10
2022-10-05T05:59:01.517Z,24.84
2022-10-05T06:01:56.094Z,26.74
2022-10-05T06:04:36.264Z,25.70
2022-10-05T06:07:06.538Z,24.42
2022-10-05T06:09:45.293Z,24.53
2022-10-05T06:12:35.007Z,24.25
2022-10-05T06:15:34.388Z,24.88
2022-10-05T06:18:11.237Z,24.37
2022-10-05T06:21:00.153Z,24.10
2022-10-05T06:23:39.463Z,23.41
2022-10-05T06:26:40.267Z,23.47
2022-10-05T06:29:23.142Z,23.27
2022-10-05T06:31:59.048Z,23.12
2022-10-05T06:34:56.788Z,23.82
2022-10-05T06:37:34.496Z,22.65
2022-10-05T06:40:24.863Z,22.58
2022-10-05T06:43:21.570Z,22.61
2022-10-05T06:46:31.946Z,24.74
2022-10-05T06:49:16.854Z,21.76
2022-10-05T06:52:28.138Z,22.95
2022-10-05T06:55:04.704Z,22.91
2022-10-05T06:57:58.746Z,23.65
2022-10-05T07:00:50.966Z,23.87
2022-10-05T07:03:47.445Z,23.84
2022-10-05T07:06:26.102Z,23.55
2022-10-05T07:09:21.320Z,24.32
2022-10-05T07:12:16.996Z,24.11
2022-10-05T07:15:24.730Z,24.57
2022-10-05T07:18:21.743Z,25.17
2022-10-05T07:21:14.025Z,23.97
2022-10-05T07:24:02.130Z,23.73
2022-10-05T07:26:45.878Z,24.73
2022-10-05T07:29:26.007Z,24.25
2022-10-05T07:32:22.599Z,24.58
2022-10-05T07:35:09.561Z,24.95
2022-10-05T07:37:58.070Z,24.20
2022-10-05T07:40:50.223Z,25.46
2022-10-05T07:44:02.022Z,23.65
2022-10-05T07:46:50.467Z,23.41
2022-10-05T07:49:49.934Z,24.52
2022-10-05T07:52:32.380Z,22.21
2022-10-05T07:55:39.154Z,23.22
2022-10-05T07:58:19.315Z,22.67
2022-10-05T08:01:09.150Z,24.36
2022-10-05T08:04:29.230Z,24.27
2022-10-05T08:07:00.493Z,22.47
2022-10-05T08:09:42.478Z,23.72
2022-10-05T08:12:33.647Z,23.91
2022-10-05T08:15:16.789Z,23.32
2022-10-05T08:17:52.891Z,24.40
2022-10-05T08:20:43.445Z,23.29
2022-10-05T08:23:10.849Z,23.17
2022-10-05T08:25:47.341Z,24.16
2022-10-05T08:28:34.419Z,23.85
2022-10-05T08:31:25.305Z,23.39
2022-10-05T08:34:05.096Z,24.67
2022-10-05T08:36:58.967Z,24.28
2022-10-05T08:39:32.141Z,23.83
2022-10-05T08:42:16.835Z,24.13
2022-10-05T08:45:09.414Z,24.78
2022-10-05T08:48:06.956Z,23.94
2022-10-05T08:51:14.359Z,24.65
2022-10-05T08:54:09.435Z,23.83
2022-10-05T08:57:13.788Z,24.89
2022-10-05T08:59:47.100Z,22.65
2022-10-05T09:02:29.385Z,24.10
2022-10-05T09:05:18.629Z,24.05
2022-10-05T09:07:45.997Z,22.89
2022-10-05T09:10:33.140Z,22.91
2022-10-05T09:13:19.106Z,22.61
2022-10-05T09:16:24.103Z,23.06
2022-10-05T09:19:37.969Z,23.86
2022-10-05T09:23:07.091Z,24.17
2022-10-05T09:25:44.263Z,21.91
2022-10-05T09:28:42.755Z,22.76
2022-10-05T09:31:27.149Z,22.95
2022-10-05T09:34:27.878Z,22.61
2022-10-05T09:37:18.426Z,22.72
2022-10-05T09:40:03.979Z,22.24
2022-10-05T09:42:46.514Z,22.20
2022-10-05T09:45:28.713Z,21.39
2022-10-05T09:48:13.215Z,21.77
2022-10-05T09:51:05.238Z,22.40
2022-10-05T09:53:51.393Z,22.74
2022-10-05T09:56:44.109Z,22.53
2022-10-05T09:59:27.555Z,22.26
2022-10-05T10:01:58.254Z,22.56
2022-10-05T10:04:44.041Z,22.63
2022-10-05T10:07:29.999Z,22.33
2022-10-05T10:10:15.887Z,23.34
2022-10-05T10:13:00.819Z,22.69
2022-10-05T10:15:46.120Z,22.12
2022-10-05T10:18:16.343Z,21.05
2022-10-05T10:20:46.534Z,21.32
2022-10-05T10:23:41.409Z,22.50
2022-10-05T10:26:36.900Z,22.62
2022-10-05T10:29:07.262Z,21.59
2022-10-05T10:31:52.864Z,21.60
2022-10-05T10:34:41.697Z,22.37
2022-10-05T10:37:35.747Z,21.33
2022-10-05T10:40:26.363Z,21.81
2022-10-05T10:42:53.997Z,20.94
2022-10-05T10:45:27.547Z,21.13
2022-10-05T10:48:05.599Z,22.92
2022-10-05T10:51:04.714Z,22.66
2022-10-05T10:53:38.121Z,21.66
2022-10-05T10:56:18.160Z,21.87
2022-10-05T10:59:04.167Z,22.20
2022-10-05T11:01:50.906Z,22.75
2022-10-05T11:04:55.232Z,22.82
2022-10-05T11:07:43.267Z,22.47
2022-10-05T11:10:47.791Z,22.52
2022-10-05T11:13:45.582Z,22.74
2022-10-05T11:16:56.924Z,22.96
2022-10-05T11:20:02.948Z,22.66
2022-10-05T11:22:51.099Z,22.52
2022-10-05T11:25:27.967Z,22.26
2022-10-05T11:28:14.514Z,22.54
2022-10-05T11:31:12.179Z,23.37
2022-10-05T11:34:01.324Z,23.53
2022-10-05T11:37:05.749Z,22.98
2022-10-05T11:39:43.370Z,23.32
2022-10-05T11:42:28.986Z,23.45
2022-10-05T11:45:24.577Z,23.32
2022-10-05T11:48:13.504Z,23.33
2022-10-05T11:51:03.794Z,23.91
2022-10-05T11:53:43.393Z,23.84
2022-10-05T11:56:22.107Z,23.32
2022-10-05T11:59:03.851Z,24.07
2022-10-05T12:01:56.026Z,23.60
2022-10-05T12:04:45.651Z,23.61
2022-10-05T12:07:35.617Z,23.50
2022-10-05T12:10:28.304Z,23.97
2022-10-05T12:13:21.580Z,24.06
2022-10-05T12:16:07.733Z,24.36
2022-10-05T12:18:39.474Z,23.74
2022-10-05T12:21:25.099Z,24.00
2022-10-05T12:23:59.296Z,23.91
2022-10-05T12:26:53.428Z,23.97
2022-10-05T12:30:03.856Z,24.19
2022-10-05T12:33:02.555Z,23.99
2022-10-05T12:35:56.256Z,24.08
2022-10-05T12:38:30.641Z,24.15
2022-10-05T12:41:07.532Z,24.09
2022-10-05T12:43:43.848Z,24.35
2022-10-05T12:46:46.085Z,24.91
2022-10-05T12:49:24.962Z,24.32
2022-10-05T12:52:05.321Z,24.38
2022-10-05T12:55:14.549Z,24.40
2022-10-05T12:58:05.635Z,24.49
2022-10-05T13:00:39.587Z,24.39
2022-10-05T13:03:25.207Z,25.01
2022-10-05T13:05:52.619Z,24.25
2022-10-05T13:08:42.140Z,24.27
2022-10-05T13:11:18.883Z,24.96
2022-10-05T13:14:05.531Z,24.27
2022-10-05T13:16:54.807Z,24.97
2022-10-05T13:19:39.557Z,24.69
2022-10-05T13:22:37.014Z,24.29
2022-10-05T13:25:35.226Z,24.65
2022-10-05T13:28:02.639Z,24.18
2022-10-05T13:30:30.367Z,24.31
2022-10-05T13:33:06.785Z,24.47
2022-10-05T13:35:57.417Z,24.62
2022-10-05T13:38:42.690Z,24.49
2022-10-05T13:41:28.396Z,24.45
2022-10-05T13:44:24.974Z,25.23
2022-10-05T13:47:19.535Z,24.82
2022-10-05T13:49:58.115Z,24.58
2022-10-05T13:53:10.817Z,24.90
2022-10-05T13:55:57.565Z,24.86
2022-10-05T13:58:40.138Z,24.61
2022-10-05T14:01:26.976Z,24.99
2022-10-05T14:04:42.364Z,24.83
2022-10-05T14:07:30.635Z,24.87
2022-10-05T14:10:02.173Z,24.81
2022-10-05T14:12:40.601Z,24.86
2022-10-05T14:15:28.548Z,24.89
2022-10-05T14:17:56.258Z,24.61
2022-10-05T14:20:37.551Z,24.92
2022-10-05T14:23:18.475Z,25.11
2022-10-05T14:25:54.801Z,25.05
2022-10-05T14:28:39.820Z,24.79
2022-10-05T14:31:28.163Z,24.68
2022-10-05T14:33:55.910Z,24.78
2022-10-05T14:36:40.345Z,25.06
2022-10-05T14:39:13.248Z,25.11
2022-10-05T14:41:49.543Z,25.46
2022-10-05T14:47:23.631Z,26.12
2022-10-05T14:50:10.976Z,25.81
2022-10-05T14:52:41.376Z,25.72
2022-10-05T14:55:38.288Z,26.07
2022-10-05T14:58:43.499Z,25.92
2022-10-05T15:01:26.656Z,25.89
2022-10-05T15:03:59.782Z,25.58
2022-10-05T15:06:36.931Z,25.53
2022-10-05T15:09:19.564Z,26.05
2022-10-05T15:11:54.726Z,26.13
2022-10-05T15:14:27.510Z,26.75
2022-10-05T15:17:04.836Z,26.50
2022-10-05T15:19:48.498Z,26.86
2022-10-05T15:22:24.057Z,27.10
2022-10-05T15:25:10.895Z,26.82
2022-10-05T15:27:50.699Z,26.86
2022-10-05T15:30:19.114Z,26.80
2022-10-05T15:33:14.244Z,26.58
2022-10-05T15:36:16.099Z,26.63
2022-10-05T15:39:11.288Z,27.03
2022-10-05T15:42:00.433Z,27.26
2022-10-05T15:44:49.659Z,27.04
2022-10-05T15:47:26.031Z,27.63
2022-10-05T15:50:05.826Z,27.64
2022-10-05T15:52:48.441Z,27.70
2022-10-05T15:55:15.833Z,27.69
2022-10-05T15:57:45.857Z,27.91
2022-10-05T16:00:19.337Z,27.65
2022-10-05T16:03:06.884Z,28.27
2022-10-05T16:06:13.804Z,27.62
2022-10-05T16:08:56.041Z,28.01
2022-10-05T16:11:37.073Z,27.91
2022-10-05T16:14:22.652Z,27.44
2022-10-05T16:17:01.218Z,27.53
2022-10-05T16:19:36.708Z,27.85
2022-10-05T16:22:43.460Z,27.54
2022-10-05T16:25:17.987Z,27.72
2022-10-05T16:27:53.135Z,27.52
2022-10-05T16:30:23.354Z,27.44
2022-10-05T16:33:18.869Z,27.38
2022-10-05T16:35:59.342Z,27.22
2022-10-05T16:38:58.084Z,27.99
2022-10-05T16:41:35.735Z,28.38
2022-10-05T16:44:36.962Z,28.38
2022-10-05T16:47:35.226Z,28.21
2022-10-05T16:50:20.420Z,28.77
2022-10-05T16:52:55.407Z,29.03
2022-10-05T16:55:34.419Z,29.10
2022-10-05T16:58:05.982Z,28.99
2022-10-05T17:00:52.201Z,28.71
2022-10-05T17:03:57.433Z,28.82
2022-10-05T17:06:31.056Z,28.49
2022-10-05T17:09:01.783Z,28.73
2022-10-05T17:11:42.880Z,28.44
2022-10-05T17:14:35.348Z,28.18
2022-10-05T17:17:49.374Z,28.15
2022-10-05T17:20:43.906Z,28.39
2022-10-05T17:23:20.897Z,28.68
2022-10-05T17:25:56.768Z,28.67
2022-10-05T17:28:41.502Z,29.10
2022-10-05T17:31:16.646Z,28.70
2022-10-05T17:33:59.479Z,28.94
2022-10-05T17:36:39.445Z,29.37
2022-10-05T17:39:18.569Z,29.14
2022-10-05T17:41:47.138Z,29.50
2022-10-05T17:44:16.479Z,29.48
2022-10-05T17:46:52.070Z,29.61
2022-10-05T17:49:34.671Z,29.59
2022-10-05T17:52:26.955Z,29.80
2022-10-05T17:55:15.136Z,29.99
2022-10-05T17:57:42.731Z,30.02
2022-10-05T18:00:56.276Z,30.31
2022-10-05T18:03:50.722Z,30.08
2022-10-05T18:06:34.909Z,30.14
2022-10-05T18:09:17.296Z,30.13
2022-10-05T18:12:06.335Z,30.39
2022-10-05T18:14:52.744Z,29.73
2022-10-05T18:17:42.264Z,29.66
2022-10-05T18:20:24.530Z,30.12
2022-10-05T18:22:54.488Z,30.03
2022-10-05T18:25:40.232Z,29.63
2022-10-05T18:28:52.169Z,29.47
2022-10-05T18:31:55.467Z,29.67
2022-10-05T18:34:43.846Z,29.22
2022-10-05T18:37:23.400Z,29.41
2022-10-05T18:39:57.095Z,29.35
2022-10-05T18:42:36.778Z,28.90
2022-10-05T18:45:09.490Z,29.13
2022-10-05T18:47:37.214Z,28.59
2022-10-05T18:50:25.972Z,29.00
2022-10-05T18:53:05.863Z,28.71
2022-10-05T18:55:44.169Z,28.75
2022-10-05T18:58:22.413Z,28.88
2022-10-05T19:01:17.093Z,28.67
2022-10-05T19:03:47.732Z,28.69
2022-10-05T19:06:24.617Z,28.86
2022-10-05T19:09:22.513Z,28.59
2022-10-05T19:12:04.357Z,28.97
2022-10-05T19:14:44.401Z,28.88
2022-10-05T19:17:20.875Z,29.13
2022-10-05T19:20:00.421Z,29.21
2022-10-05T19:22:58.721Z,28.97
2022-10-05T19:25:49.911Z,28.94
2022-10-05T19:28:41.769Z,29.09
2022-10-05T19:31:12.315Z,29.34
2022-10-05T19:34:04.108Z,29.90
2022-10-05T19:36:49.205Z,30.12
2022-10-05T19:39:42.857Z,30.06
2022-10-05T19:42:49.396Z,30.30
2022-10-05T19:45:23.236Z,31.38
2022-10-05T19:48:09.210Z,31.11
2022-10-05T19:50:38.692Z,30.30
2022-10-05T19:53:14.260Z,30.73
2022-10-05T19:55:43.988Z,29.60
2022-10-05T19:58:27.317Z,30.23
2022-10-05T20:00:54.985Z,29.99
2022-10-05T20:03:37.022Z,30.98
2022-10-05T20:06:06.802Z,30.87
2022-10-05T20:08:44.087Z,31.02
2022-10-05T20:11:17.020Z,31.06
2022-10-05T20:13:53.679Z,31.02
2022-10-05T20:16:46.643Z,31.53
2022-10-05T20:19:36.514Z,30.76
2022-10-05T20:22:28.555Z,30.63
2022-10-05T20:25:18.996Z,30.54
2022-10-05T20:27:49.426Z,30.92
2022-10-05T20:30:34.172Z,31.26
2022-10-05T20:33:02.177Z,31.15
2022-10-05T20:35:30.949Z,31.19
2022-10-05T20:38:00.482Z,31.18
2022-10-05T20:40:31.438Z,31.37
2022-10-05T20:42:59.221Z,31.23
2022-10-05T20:45:26.858Z,31.77
2022-10-05T20:47:54.334Z,31.61
2022-10-05T20:50:22.508Z,31.40
2022-10-05T20:52:49.980Z,31.55
2022-10-05T20:55:17.573Z,31.27
2022-10-05T20:57:46.341Z,31.46
2022-10-05T21:00:14.341Z,31.94
2022-10-05T21:02:41.836Z,31.60
2022-10-05T21:05:09.946Z,31.65
2022-10-05T21:07:37.498Z,31.87
2022-10-05T21:10:05.453Z,31.98
2022-10-05T21:12:34.322Z,31.82
2022-10-05T21:15:04.964Z,31.72
2022-10-05T21:17:35.385Z,31.63
2022-10-05T21:20:02.800Z,31.58
2022-10-05T21:22:31.488Z,31.78
2022-10-05T21:24:59.016Z,31.49
2022-10-05T21:27:26.406Z,31.69
2022-10-05T21:29:53.954Z,32.15
2022-10-05T21:32:21.283Z,32.26
2022-10-05T21:34:48.787Z,32.57
2022-10-05T21:37:16.334Z,32.79
2022-10-05T21:39:44.150Z,32.54
2022-10-05T21:42:11.551Z,32.65
2022-10-05T21:44:39.037Z,32.74
2022-10-05T21:47:07.180Z,32.75
2022-10-05T21:49:39.927Z,33.13
2022-10-05T21:52:07.400Z,32.85
2022-10-05T21:54:35.318Z,32.62
2022-10-05T21:57:03.093Z,32.94
2022-10-05T21:59:34.613Z,32.75
2022-10-05T22:02:02.686Z,32.41
2022-10-05T22:04:30.054Z,32.61
2022-10-05T22:06:57.481Z,32.69
2022-10-05T22:09:24.983Z,32.65
2022-10-05T22:11:52.500Z,32.88
2022-10-05T22:14:19.957Z,32.80
2022-10-05T22:16:47.827Z,33.00
2022-10-05T22:19:19.446Z,32.78
2022-10-05T22:21:47.209Z,33.21
2022-10-05T22:24:14.860Z,33.22
2022-10-05T22:26:45.004Z,33.15
2022-10-05T22:29:14.186Z,33.00
2022-10-05T22:31:42.425Z,33.15
2022-10-05T22:34:09.950Z,33.14
2022-10-05T22:36:37.820Z,33.50
2022-10-05T22:39:05.325Z,33.11
2022-10-05T22:41:32.772Z,33.59
2022-10-05T22:44:00.918Z,33.43
2022-10-05T22:46:28.605Z,33.18
2022-10-05T22:48:56.131Z,33.16
2022-10-05T22:51:23.660Z,33.54
2022-10-05T22:53:51.177Z,33.50
2022-10-05T22:56:18.788Z,33.51
2022-10-05T22:58:46.655Z,33.43
2022-10-05T23:01:18.922Z,33.76
2022-10-05T23:03:47.060Z,33.41
2022-10-05T23:06:17.789Z,34.15
2022-10-05T23:08:46.383Z,34.22
2022-10-05T23:11:19.520Z,33.87
2022-10-05T23:13:46.953Z,34.36
2022-10-05T23:16:17.774Z,34.40
2022-10-05T23:18:48.957Z,34.74
2022-10-05T23:21:17.197Z,34.95
2022-10-05T23:23:51.276Z,34.97
2022-10-05T23:26:21.688Z,35.16
2022-10-05T23:28:50.342Z,35.10
2022-10-05T23:31:30.374Z,34.88
2022-10-05T23:33:57.961Z,35.23
2022-10-05T23:36:28.148Z,35.14
2022-10-05T23:38:55.617Z,35.09
2022-10-05T23:41:23.053Z,35.39
2022-10-05T23:43:50.880Z,36.95
2022-10-05T23:46:18.516Z,36.89
2022-10-05T23:48:46.072Z,39.61
2022-10-05T23:51:14.729Z,40.18
2022-10-05T23:53:42.233Z,39.00
2022-10-05T23:56:09.606Z,43.17
2022-10-05T23:58:37.233Z,44.00
